Time;durP1;ratioP1;P1;durP2;ratioP2;P2;SDS_P1;SDS_P2;PMS_P1;PMS_P2;Temp;Humidity;BMP_temperature;BMP_pressure;BME280_temperature;BME280_humidity;BME280_pressure;Samples;Min_cycle;Max_cycle;Signal;HPM_P1;HPM_P2
2021/07/18 00:01:47;;;;;;;2.83;2.00;;;20.60;99.90;;;;;;5017198;28;20501;-73
2021/07/18 00:04:13;;;;;;;8.38;2.10;;;20.60;99.30;;;;;;5015483;28;20357;-73
2021/07/18 00:06:38;;;;;;;8.15;2.17;;;20.60;99.70;;;;;;5010940;28;20041;-73
2021/07/18 00:09:05;;;;;;;6.72;2.42;;;20.60;99.30;;;;;;5019162;28;20022;-73
2021/07/18 00:11:31;;;;;;;5.10;2.10;;;20.60;99.50;;;;;;5016767;28;20041;-73
2021/07/18 00:13:56;;;;;;;8.05;2.55;;;20.60;99.50;;;;;;5016284;28;20357;-73
2021/07/18 00:16:31;;;;;;;6.07;2.33;;;20.60;99.90;;;;;;5016051;28;20104;-73
2021/07/18 00:18:57;;;;;;;5.57;2.13;;;20.50;99.90;;;;;;5015544;28;20059;-73
2021/07/18 00:21:24;;;;;;;4.50;2.10;;;20.50;99.90;;;;;;5013388;28;20465;-73
2021/07/18 00:23:50;;;;;;;3.72;2.20;;;20.40;99.90;;;;;;5016094;28;20026;-73
2021/07/18 00:26:15;;;;;;;5.43;2.28;;;20.40;99.90;;;;;;5014711;28;20014;-73
2021/07/18 00:28:41;;;;;;;9.07;2.97;;;20.40;99.90;;;;;;5014918;28;20503;-73
2021/07/18 00:31:08;;;;;;;5.07;2.42;;;20.40;99.90;;;;;;5017681;28;20164;-73
2021/07/18 00:33:34;;;;;;;6.10;2.50;;;20.30;99.90;;;;;;5018487;28;20036;-73
2021/07/18 00:36:00;;;;;;;6.25;2.53;;;20.30;99.90;;;;;;5020454;28;20029;-74
2021/07/18 00:38:25;;;;;;;4.35;2.45;;;20.30;99.90;;;;;;5023028;28;20025;-73
2021/07/18 00:40:51;;;;;;;5.35;2.20;;;20.30;99.90;;;;;;5016420;28;20053;-73
2021/07/18 00:43:17;;;;;;;5.00;1.98;;;20.30;99.90;;;;;;5013487;28;20030;-73
2021/07/18 00:45:42;;;;;;;6.88;2.85;;;20.20;99.90;;;;;;5012737;28;20017;-73
2021/07/18 00:48:08;;;;;;;6.72;2.58;;;20.20;99.90;;;;;;5010662;28;20619;-73
2021/07/18 00:50:33;;;;;;;5.57;2.53;;;20.20;99.90;;;;;;5019253;28;20021;-73
2021/07/18 00:52:59;;;;;;;5.78;2.30;;;20.20;99.90;;;;;;5021327;28;20059;-73
2021/07/18 00:55:25;;;;;;;3.65;1.90;;;20.10;99.90;;;;;;5016810;28;20091;-73
2021/07/18 00:57:50;;;;;;;3.85;2.10;;;20.10;99.90;;;;;;5011760;28;20068;-73
2021/07/18 01:00:17;;;;;;;3.28;2.05;;;20.00;99.90;;;;;;5016128;28;20053;-73
2021/07/18 01:02:45;;;;;;;4.05;2.20;;;20.00;99.90;;;;;;5021743;28;20036;-73
2021/07/18 01:05:13;;;;;;;6.82;2.50;;;20.00;99.90;;;;;;5009494;28;20077;-73
2021/07/18 01:07:38;;;;;;;4.03;2.25;;;19.90;99.90;;;;;;5012700;28;20431;-73
2021/07/18 01:10:06;;;;;;;11.68;2.65;;;19.90;99.90;;;;;;5010819;28;20433;-73
2021/07/18 01:12:32;;;;;;;5.43;2.40;;;19.90;99.90;;;;;;5017134;28;20025;-73
2021/07/18 01:14:58;;;;;;;6.53;2.33;;;19.90;99.90;;;;;;5016084;28;20033;-73
2021/07/18 01:17:24;;;;;;;6.57;2.65;;;19.90;99.90;;;;;;5016423;28;20025;-73
2021/07/18 01:19:49;;;;;;;8.60;2.55;;;19.90;99.90;;;;;;5018190;28;20396;-73
2021/07/18 01:22:15;;;;;;;3.83;2.35;;;19.80;99.90;;;;;;5015690;28;20017;-71
2021/07/18 01:24:41;;;;;;;5.68;1.73;;;19.80;99.90;;;;;;5013896;28;20064;-71
2021/07/18 01:27:06;;;;;;;3.75;2.22;;;19.80;99.90;;;;;;5016496;28;20363;-72
2021/07/18 01:29:33;;;;;;;3.80;2.13;;;19.70;99.90;;;;;;5013864;28;20392;-71
2021/07/18 01:32:00;;;;;;;5.07;2.17;;;19.70;99.90;;;;;;5015241;28;20034;-72
2021/07/18 01:34:26;;;;;;;3.83;2.28;;;19.70;99.90;;;;;;5006917;28;20037;-72
2021/07/18 01:36:52;;;;;;;4.43;2.50;;;19.70;99.90;;;;;;5010727;28;20029;-72
2021/07/18 01:39:18;;;;;;;6.20;2.42;;;19.70;99.90;;;;;;5021134;28;20033;-72
2021/07/18 01:41:45;;;;;;;3.63;2.03;;;19.60;99.90;;;;;;5018092;28;20361;-71
2021/07/18 01:44:10;;;;;;;3.38;2.40;;;19.60;99.90;;;;;;5016987;28;20021;-72
2021/07/18 01:46:36;;;;;;;4.18;2.20;;;19.60;99.90;;;;;;5018723;28;20024;-72
2021/07/18 01:49:07;;;;;;;5.07;2.30;;;19.60;99.90;;;;;;5023250;28;20228;-72
2021/07/18 01:51:32;;;;;;;3.13;1.95;;;19.50;99.90;;;;;;5017063;28;20100;-72
2021/07/18 01:54:00;;;;;;;3.63;1.95;;;19.50;99.90;;;;;;5016506;28;20611;-72
2021/07/18 01:56:27;;;;;;;3.25;2.33;;;19.50;99.90;;;;;;5018185;28;20509;-72
2021/07/18 01:58:53;;;;;;;4.55;2.20;;;19.50;99.90;;;;;;5016186;28;20131;-72
2021/07/18 02:01:24;;;;;;;2.80;2.20;;;19.50;99.90;;;;;;5012833;28;20072;-72
2021/07/18 02:03:49;;;;;;;4.80;2.40;;;19.50;99.90;;;;;;5010173;28;20065;-73
2021/07/18 02:06:15;;;;;;;6.82;2.78;;;19.40;99.90;;;;;;5016544;28;20142;-73
2021/07/18 02:08:41;;;;;;;4.60;2.13;;;19.40;99.90;;;;;;5017879;28;20036;-73
2021/07/18 02:11:06;;;;;;;6.32;2.20;;;19.40;99.90;;;;;;5025776;28;20029;-72
2021/07/18 02:13:32;;;;;;;6.25;2.33;;;19.40;99.90;;;;;;5019299;28;20292;-72
2021/07/18 02:16:02;;;;;;;6.72;2.17;;;19.40;99.90;;;;;;5019950;28;20316;-72
2021/07/18 02:18:28;;;;;;;4.15;2.50;;;19.40;99.90;;;;;;5017699;28;20025;-72
2021/07/18 02:20:55;;;;;;;3.45;1.95;;;19.30;99.90;;;;;;5015594;28;20037;-72
2021/07/18 02:23:21;;;;;;;8.85;2.60;;;19.30;99.90;;;;;;5021972;28;20033;-72
2021/07/18 02:25:48;;;;;;;4.13;2.50;;;19.20;99.90;;;;;;5019870;28;20101;-72
2021/07/18 02:28:14;;;;;;;4.55;2.40;;;19.30;99.90;;;;;;5021989;28;20033;-72
2021/07/18 02:30:40;;;;;;;7.95;2.70;;;19.20;99.90;;;;;;5016849;28;20894;-72
2021/07/18 02:33:05;;;;;;;4.15;2.20;;;19.20;99.90;;;;;;5018144;28;20754;-72
2021/07/18 02:35:31;;;;;;;5.53;2.63;;;19.20;99.90;;;;;;5012058;28;20080;-72
2021/07/18 02:37:57;;;;;;;5.18;2.17;;;19.10;99.90;;;;;;5015285;28;20452;-72
2021/07/18 02:40:23;;;;;;;6.68;1.98;;;19.10;99.90;;;;;;5016940;28;20048;-72
2021/07/18 02:42:49;;;;;;;5.97;2.30;;;19.10;99.90;;;;;;5017704;28;20030;-73
2021/07/18 02:45:18;;;;;;;4.78;2.25;;;19.10;99.90;;;;;;5019829;28;20065;-72
2021/07/18 02:47:44;;;;;;;4.97;2.55;;;19.10;99.90;;;;;;5016824;28;20484;-73
2021/07/18 02:50:11;;;;;;;5.32;2.20;;;19.00;99.90;;;;;;5015168;28;20083;-72
2021/07/18 02:52:37;;;;;;;5.18;2.42;;;19.00;99.90;;;;;;5018995;28;20492;-73
2021/07/18 02:55:04;;;;;;;6.50;2.50;;;18.90;99.90;;;;;;5015303;28;20045;-73
2021/07/18 02:57:30;;;;;;;3.13;2.00;;;18.90;99.90;;;;;;5014398;28;20089;-72
2021/07/18 02:59:55;;;;;;;7.55;2.60;;;18.80;99.90;;;;;;5015386;28;20021;-72
2021/07/18 03:02:21;;;;;;;4.28;2.38;;;18.80;99.90;;;;;;5018025;28;20033;-73
2021/07/18 03:04:46;;;;;;;6.47;2.85;;;18.80;99.90;;;;;;5011340;28;20409;-72
2021/07/18 03:07:12;;;;;;;7.40;2.22;;;18.80;99.90;;;;;;5014705;28;20029;-73
2021/07/18 03:09:37;;;;;;;6.82;2.70;;;18.80;99.90;;;;;;5017936;28;20064;-72
2021/07/18 03:12:06;;;;;;;11.18;2.65;;;18.70;99.90;;;;;;5018572;28;20564;-72
2021/07/18 03:14:32;;;;;;;5.97;2.65;;;18.70;99.90;;;;;;5019389;28;20033;-72
2021/07/18 03:16:57;;;;;;;6.93;2.60;;;18.70;99.90;;;;;;5018846;28;20033;-72
2021/07/18 03:19:23;;;;;;;4.20;2.47;;;18.70;99.90;;;;;;5016442;28;20122;-72
2021/07/18 03:21:49;;;;;;;6.45;2.88;;;18.70;99.90;;;;;;5013325;28;20398;-72
2021/07/18 03:24:15;;;;;;;9.30;3.15;;;18.60;99.90;;;;;;5018001;28;20048;-72
2021/07/18 03:26:40;;;;;;;4.05;3.03;;;18.60;99.90;;;;;;5020911;28;20056;-73
2021/07/18 03:29:05;;;;;;;6.43;3.30;;;18.60;99.90;;;;;;5012853;28;20033;-72
2021/07/18 03:31:31;;;;;;;4.15;2.70;;;18.60;99.90;;;;;;5010743;28;20029;-72
2021/07/18 03:33:57;;;;;;;9.07;3.22;;;18.60;99.90;;;;;;5017249;28;20147;-72
2021/07/18 03:36:22;;;;;;;3.92;2.58;;;18.60;99.90;;;;;;5019442;28;20044;-73
2021/07/18 03:38:48;;;;;;;4.15;2.55;;;18.50;99.90;;;;;;5013023;28;20029;-73
2021/07/18 03:41:13;;;;;;;6.85;2.78;;;18.50;99.90;;;;;;5011889;28;20029;-73
2021/07/18 03:43:39;;;;;;;3.78;2.40;;;18.50;99.90;;;;;;5016757;28;20029;-73
2021/07/18 03:46:04;;;;;;;7.15;2.75;;;18.50;99.90;;;;;;5016829;28;20430;-73
2021/07/18 03:48:33;;;;;;;4.32;2.78;;;18.60;99.90;;;;;;5014020;28;20022;-73
2021/07/18 03:50:59;;;;;;;10.82;2.55;;;18.60;99.90;;;;;;5012990;28;20034;-73
2021/07/18 03:53:24;;;;;;;5.93;3.00;;;18.60;99.90;;;;;;5014401;28;20083;-73
2021/07/18 03:55:50;;;;;;;5.32;2.72;;;18.60;99.90;;;;;;5018094;28;20033;-73
2021/07/18 03:58:15;;;;;;;4.80;2.78;;;18.60;99.90;;;;;;5014291;28;20516;-73
2021/07/18 04:00:41;;;;;;;4.97;2.47;;;18.60;99.90;;;;;;5017918;28;20029;-73
2021/07/18 04:03:06;;;;;;;6.65;2.45;;;18.60;99.90;;;;;;5016293;28;20128;-73
2021/07/18 04:05:32;;;;;;;3.15;2.22;;;18.60;99.90;;;;;;5012523;28;20405;-73
2021/07/18 04:07:57;;;;;;;4.95;2.70;;;18.60;99.90;;;;;;5011351;28;20049;-73
2021/07/18 04:10:23;;;;;;;5.70;2.60;;;18.60;99.90;;;;;;5015902;28;20033;-73
2021/07/18 04:12:48;;;;;;;5.63;2.28;;;18.60;99.90;;;;;;5012783;28;20625;-73
2021/07/18 04:15:15;;;;;;;3.67;2.28;;;18.60;99.90;;;;;;5010470;28;20032;-73
2021/07/18 04:17:41;;;;;;;4.88;2.50;;;18.60;99.90;;;;;;5017340;28;20029;-73
2021/07/18 04:20:07;;;;;;;7.40;2.60;;;18.60;99.90;;;;;;5019517;28;20366;-73
2021/07/18 04:22:32;;;;;;;4.40;2.08;;;18.50;99.90;;;;;;5023135;28;20607;-73
2021/07/18 04:24:58;;;;;;;3.63;2.00;;;18.60;99.90;;;;;;5018473;28;20053;-72
2021/07/18 04:27:24;;;;;;;6.38;2.40;;;18.60;99.90;;;;;;5010174;28;20625;-73
2021/07/18 04:29:49;;;;;;;4.38;2.40;;;18.60;99.90;;;;;;5013917;28;20022;-73
2021/07/18 04:32:15;;;;;;;3.90;2.30;;;18.60;99.90;;;;;;5014030;28;20052;-73
2021/07/18 04:34:43;;;;;;;4.88;2.33;;;18.60;99.90;;;;;;5015393;28;20057;-73
2021/07/18 04:37:09;;;;;;;4.50;2.20;;;18.70;99.90;;;;;;5016344;28;20037;-73
2021/07/18 04:39:35;;;;;;;6.45;2.63;;;18.70;99.90;;;;;;5016074;28;20030;-73
2021/07/18 04:42:00;;;;;;;3.88;2.45;;;18.70;99.90;;;;;;5021086;28;20084;-73
2021/07/18 04:44:26;;;;;;;8.25;2.20;;;18.80;99.90;;;;;;5019582;28;20025;-73
2021/07/18 04:46:54;;;;;;;4.25;2.30;;;18.80;99.90;;;;;;5009551;28;20056;-73
2021/07/18 04:49:21;;;;;;;3.28;1.95;;;18.80;99.90;;;;;;5016581;28;20021;-73
2021/07/18 04:51:46;;;;;;;3.88;2.20;;;18.80;99.90;;;;;;5014850;28;20124;-74
2021/07/18 04:54:12;;;;;;;4.97;2.28;;;18.80;99.90;;;;;;5012777;28;20124;-72
2021/07/18 04:56:37;;;;;;;9.40;2.20;;;18.80;99.90;;;;;;5022814;28;20022;-73
2021/07/18 04:59:02;;;;;;;5.07;2.30;;;18.90;99.90;;;;;;5020279;28;20447;-73
2021/07/18 05:01:28;;;;;;;5.90;2.10;;;18.90;99.90;;;;;;5014163;28;20087;-73
2021/07/18 05:03:53;;;;;;;4.97;2.50;;;18.90;99.90;;;;;;5013697;28;20033;-73
2021/07/18 05:06:19;;;;;;;4.40;2.30;;;18.90;99.90;;;;;;5010803;28;20549;-73
2021/07/18 05:08:44;;;;;;;6.88;2.10;;;18.90;99.90;;;;;;5015898;28;20013;-73
2021/07/18 05:11:10;;;;;;;8.40;2.22;;;18.90;99.90;;;;;;5014573;28;20443;-73
2021/07/18 05:13:35;;;;;;;5.78;2.40;;;19.00;99.90;;;;;;5011958;28;20022;-73
2021/07/18 05:16:01;;;;;;;2.00;1.77;;;19.00;99.90;;;;;;5011112;28;20026;-73
2021/07/18 05:18:26;;;;;;;4.05;2.20;;;19.00;99.90;;;;;;5016850;28;20048;-73
2021/07/18 05:20:52;;;;;;;3.35;1.95;;;19.10;99.90;;;;;;5015093;28;20120;-73
2021/07/18 05:23:17;;;;;;;4.45;1.95;;;19.10;99.90;;;;;;5016722;28;20025;-73
2021/07/18 05:25:43;;;;;;;3.58;2.13;;;19.10;99.90;;;;;;5019978;28;20017;-73
2021/07/18 05:28:12;;;;;;;4.47;2.10;;;19.20;99.90;;;;;;5015243;28;20447;-73
2021/07/18 05:30:37;;;;;;;3.22;2.00;;;19.20;99.90;;;;;;5013587;28;20504;-73
2021/07/18 05:33:03;;;;;;;5.63;2.20;;;19.20;99.90;;;;;;5013188;28;20034;-73
2021/07/18 05:35:29;;;;;;;10.40;2.03;;;19.20;99.90;;;;;;5018548;28;20029;-73
2021/07/18 05:37:54;;;;;;;5.88;2.00;;;19.20;99.90;;;;;;5011397;28;20033;-73
2021/07/18 05:40:20;;;;;;;4.57;1.95;;;19.30;99.90;;;;;;5010971;28;20030;-73
2021/07/18 05:42:46;;;;;;;6.25;1.92;;;19.30;99.90;;;;;;5014095;28;20036;-73
2021/07/18 05:45:12;;;;;;;2.13;1.80;;;19.30;99.90;;;;;;5013003;28;20025;-73
2021/07/18 05:47:39;;;;;;;4.43;1.90;;;19.40;99.90;;;;;;5010561;28;20156;-73
2021/07/18 05:50:08;;;;;;;4.05;1.90;;;19.40;99.90;;;;;;5010311;28;20365;-73
2021/07/18 05:52:34;;;;;;;4.03;1.63;;;19.40;99.90;;;;;;5013880;28;20503;-73
2021/07/18 05:54:59;;;;;;;4.28;1.75;;;19.40;99.90;;;;;;5008320;28;20040;-73
2021/07/18 05:57:25;;;;;;;3.85;1.77;;;19.50;99.90;;;;;;5017465;28;20030;-73
2021/07/18 05:59:50;;;;;;;4.03;2.08;;;19.50;99.90;;;;;;5017332;28;20650;-74
2021/07/18 06:02:16;;;;;;;5.65;1.92;;;19.50;99.90;;;;;;5017006;28;20042;-73
2021/07/18 06:04:42;;;;;;;5.25;1.88;;;19.50;99.90;;;;;;5011922;28;20025;-73
2021/07/18 06:07:08;;;;;;;4.78;2.08;;;19.50;99.90;;;;;;5016466;28;20047;-73
2021/07/18 06:09:33;;;;;;;4.95;2.20;;;19.50;99.90;;;;;;5011367;28;20101;-73
2021/07/18 06:11:59;;;;;;;3.03;1.80;;;19.60;99.90;;;;;;5006686;28;20024;-73
2021/07/18 06:14:25;;;;;;;5.60;2.33;;;19.60;99.90;;;;;;5019684;28;20037;-73
2021/07/18 06:16:50;;;;;;;3.75;1.70;;;19.60;99.90;;;;;;5013163;28;20045;-73
2021/07/18 06:19:16;;;;;;;2.53;1.85;;;19.60;99.90;;;;;;5018676;28;20491;-73
2021/07/18 06:21:41;;;;;;;4.45;1.83;;;19.70;99.90;;;;;;5013865;28;20117;-73
2021/07/18 06:24:07;;;;;;;3.50;1.95;;;19.80;99.90;;;;;;5017545;28;20756;-73
2021/07/18 06:26:33;;;;;;;6.30;1.90;;;19.80;99.90;;;;;;5013412;28;20087;-73
2021/07/18 06:29:00;;;;;;;3.70;1.98;;;19.80;99.90;;;;;;5011931;28;20022;-73
2021/07/18 06:31:26;;;;;;;6.53;1.75;;;19.80;99.90;;;;;;5015350;28;20033;-73
2021/07/18 06:33:51;;;;;;;5.05;1.90;;;19.90;99.90;;;;;;5011640;28;20049;-73
2021/07/18 06:36:17;;;;;;;3.38;1.88;;;19.90;99.90;;;;;;5022456;28;20033;-73
2021/07/18 06:38:49;;;;;;;3.63;2.13;;;19.90;99.90;;;;;;5015185;28;20640;-73
2021/07/18 06:41:14;;;;;;;3.42;1.80;;;19.90;99.90;;;;;;5013955;28;20053;-73
2021/07/18 06:43:40;;;;;;;4.97;2.25;;;20.00;99.90;;;;;;5020166;28;20056;-73
2021/07/18 06:46:05;;;;;;;5.35;1.92;;;20.00;99.90;;;;;;5011563;28;20030;-73
2021/07/18 06:48:30;;;;;;;2.72;1.70;;;20.10;99.90;;;;;;5013327;28;20022;-74
2021/07/18 06:50:57;;;;;;;3.15;1.70;;;20.10;99.90;;;;;;5008655;28;20439;-73
2021/07/18 06:53:23;;;;;;;3.88;1.80;;;20.10;99.90;;;;;;5014135;28;20067;-74
2021/07/18 06:55:50;;;;;;;5.53;2.00;;;20.20;99.90;;;;;;5018635;28;20073;-73
2021/07/18 06:58:16;;;;;;;2.47;1.80;;;20.20;99.90;;;;;;5022660;28;20068;-73
2021/07/18 07:00:41;;;;;;;7.80;2.15;;;20.20;99.90;;;;;;5016557;28;20704;-73
2021/07/18 07:03:07;;;;;;;5.20;1.63;;;20.30;99.90;;;;;;5019472;28;20036;-73
2021/07/18 07:05:32;;;;;;;5.47;1.90;;;20.40;99.90;;;;;;5012550;28;20046;-73
2021/07/18 07:07:58;;;;;;;2.92;1.65;;;20.40;99.90;;;;;;5013014;28;20033;-73
2021/07/18 07:10:23;;;;;;;4.63;1.92;;;20.40;99.90;;;;;;5019676;28;20096;-73
2021/07/18 07:12:49;;;;;;;4.78;1.67;;;20.50;99.90;;;;;;5019399;28;20038;-72
2021/07/18 07:15:15;;;;;;;3.17;1.80;;;20.50;99.90;;;;;;5015564;28;20033;-73
2021/07/18 07:17:40;;;;;;;2.58;1.85;;;20.60;99.90;;;;;;5024532;28;20036;-73
2021/07/18 07:20:08;;;;;;;1.52;1.42;;;20.60;99.90;;;;;;5019660;28;20063;-72
2021/07/18 07:22:35;;;;;;;3.95;2.20;;;20.70;99.90;;;;;;5017343;28;20026;-73
2021/07/18 07:25:03;;;;;;;3.22;1.77;;;20.70;99.90;;;;;;5012741;28;20520;-71
2021/07/18 07:27:28;;;;;;;3.97;1.60;;;20.80;99.90;;;;;;5011669;28;20115;-72
2021/07/18 07:29:54;;;;;;;4.82;1.85;;;20.80;99.90;;;;;;5007282;28;20554;-72
2021/07/18 07:32:19;;;;;;;2.35;1.52;;;20.80;99.90;;;;;;5015350;28;20571;-73
2021/07/18 07:34:45;;;;;;;2.97;1.63;;;20.90;99.90;;;;;;5015698;28;20566;-72
2021/07/18 07:37:10;;;;;;;3.42;1.90;;;20.90;99.90;;;;;;5021267;28;20025;-73
2021/07/18 07:39:36;;;;;;;2.67;1.70;;;21.00;99.90;;;;;;5017871;28;20399;-73
2021/07/18 07:42:01;;;;;;;1.98;1.70;;;21.00;99.90;;;;;;5011692;28;20042;-72
2021/07/18 07:44:27;;;;;;;5.15;1.75;;;21.00;99.90;;;;;;5016716;28;20488;-72
2021/07/18 07:46:52;;;;;;;3.97;2.08;;;21.10;99.90;;;;;;5016092;28;20555;-71
2021/07/18 07:49:18;;;;;;;2.60;1.80;;;21.20;99.90;;;;;;5017011;28;20021;-73
2021/07/18 07:51:43;;;;;;;4.30;1.42;;;21.20;99.90;;;;;;5024882;28;20483;-72
2021/07/18 07:54:08;;;;;;;1.95;1.40;;;21.30;99.90;;;;;;5018369;28;20072;-73
2021/07/18 07:56:34;;;;;;;2.50;1.83;;;21.40;99.90;;;;;;5016366;28;20067;-74
2021/07/18 07:58:59;;;;;;;5.95;2.13;;;21.40;99.90;;;;;;5017991;28;20121;-74
2021/07/18 08:01:25;;;;;;;4.45;2.08;;;21.40;99.90;;;;;;5015468;28;20034;-74
2021/07/18 08:03:51;;;;;;;2.15;1.80;;;21.50;99.90;;;;;;5011131;28;20757;-73
2021/07/18 08:06:17;;;;;;;1.60;1.50;;;21.50;99.90;;;;;;5011559;28;20529;-73
2021/07/18 08:08:42;;;;;;;5.13;1.90;;;21.50;99.90;;;;;;5014540;28;20026;-72
2021/07/18 08:11:08;;;;;;;2.25;1.88;;;21.60;99.90;;;;;;5011632;28;20056;-72
2021/07/18 08:13:34;;;;;;;3.33;1.88;;;21.60;99.90;;;;;;5017174;28;20021;-72
2021/07/18 08:16:03;;;;;;;2.40;1.77;;;21.70;99.90;;;;;;5019561;28;20025;-73
2021/07/18 08:18:29;;;;;;;4.90;1.98;;;21.70;99.90;;;;;;5013413;28;20114;-73
2021/07/18 08:20:54;;;;;;;4.50;1.90;;;21.80;99.90;;;;;;5016815;28;20106;-72
2021/07/18 08:23:20;;;;;;;2.40;1.83;;;21.80;99.90;;;;;;5019431;28;20124;-72
2021/07/18 08:25:45;;;;;;;4.05;2.10;;;21.90;99.90;;;;;;5013377;28;20030;-72
2021/07/18 08:28:11;;;;;;;6.60;2.00;;;21.90;99.90;;;;;;5018062;28;20038;-72
2021/07/18 08:30:37;;;;;;;3.28;2.03;;;21.90;99.90;;;;;;5016027;28;20037;-72
2021/07/18 08:33:03;;;;;;;4.28;1.73;;;22.10;99.90;;;;;;5013760;28;20033;-72
2021/07/18 08:35:29;;;;;;;4.95;1.90;;;22.10;99.90;;;;;;5014081;28;20132;-72
2021/07/18 08:37:55;;;;;;;2.15;1.50;;;22.20;99.90;;;;;;5019501;28;20053;-73
2021/07/18 08:40:20;;;;;;;4.85;2.13;;;22.30;99.90;;;;;;5018181;28;20117;-73
2021/07/18 08:42:46;;;;;;;3.05;1.95;;;22.30;99.90;;;;;;5013536;28;20040;-72
2021/07/18 08:45:12;;;;;;;4.40;1.90;;;22.40;99.90;;;;;;5017781;28;20433;-74
2021/07/18 08:47:38;;;;;;;7.13;1.63;;;22.50;99.90;;;;;;5017627;28;20025;-73
2021/07/18 08:50:05;;;;;;;4.63;1.80;;;22.50;99.90;;;;;;5018901;28;20029;-73
2021/07/18 08:52:31;;;;;;;4.35;1.75;;;22.50;99.90;;;;;;5014305;28;20116;-73
2021/07/18 08:54:57;;;;;;;4.82;1.80;;;22.50;99.90;;;;;;5011258;28;20120;-74
2021/07/18 08:57:24;;;;;;;3.13;2.00;;;22.50;98.50;;;;;;5016382;28;20415;-73
2021/07/18 08:59:51;;;;;;;4.35;1.65;;;22.60;99.70;;;;;;5005556;28;20488;-73
2021/07/18 09:02:17;;;;;;;3.13;1.98;;;22.70;99.90;;;;;;5020593;28;20034;-73
2021/07/18 09:04:43;;;;;;;4.28;1.90;;;22.70;98.50;;;;;;5015098;28;20030;-78
2021/07/18 09:07:11;;;;;;;3.65;1.83;;;22.80;99.20;;;;;;5016732;28;20048;-74
2021/07/18 09:09:36;;;;;;;4.40;1.65;;;22.90;99.90;;;;;;5017729;28;20124;-73
2021/07/18 09:12:05;;;;;;;2.58;1.60;;;23.00;98.00;;;;;;5014437;28;20531;-73
2021/07/18 09:14:32;;;;;;;4.32;1.45;;;23.00;98.60;;;;;;5018629;28;20021;-73
2021/07/18 09:16:58;;;;;;;3.35;1.67;;;23.10;98.40;;;;;;5014029;28;20026;-73
2021/07/18 09:19:31;;;;;;;2.40;1.73;;;23.10;97.30;;;;;;5013437;28;20032;-73
2021/07/18 09:21:57;;;;;;;4.20;1.80;;;23.20;97.80;;;;;;5022706;28;20044;-73
2021/07/18 09:24:24;;;;;;;3.92;1.70;;;23.30;96.30;;;;;;5011617;28;20030;-73
2021/07/18 09:27:11;;;;;;;3.25;1.58;;;23.30;96.90;;;;;;5015935;28;20026;-73
2021/07/18 09:30:04;;;;;;;3.58;1.75;;;23.40;96.70;;;;;;5012056;28;20053;-73
2021/07/18 09:32:34;;;;;;;2.95;1.63;;;23.40;95.80;;;;;;5017282;28;20046;-73
2021/07/18 09:35:03;;;;;;;3.55;1.77;;;23.40;95.40;;;;;;5013311;28;20032;-73
2021/07/18 09:37:31;;;;;;;2.53;1.90;;;23.50;94.80;;;;;;5014830;28;20112;-74
2021/07/18 09:40:03;;;;;;;4.25;1.70;;;23.50;94.30;;;;;;5016016;28;20037;-73
2021/07/18 09:42:42;;;;;;;4.60;1.35;;;23.60;95.50;;;;;;5021320;28;20116;-73
2021/07/18 09:45:17;;;;;;;1.40;1.30;;;23.60;93.00;;;;;;5009440;28;20026;-73
2021/07/18 09:47:59;;;;;;;3.58;1.50;;;23.60;94.70;;;;;;5013563;28;20080;-72
2021/07/18 09:50:28;;;;;;;2.70;1.48;;;23.60;94.70;;;;;;5015123;28;20123;-73
2021/07/18 09:53:15;;;;;;;1.90;1.50;;;23.70;93.50;;;;;;5015947;28;20057;-72
2021/07/18 09:56:01;;;;;;;1.80;1.30;;;23.80;95.20;;;;;;5022170;28;20041;-72
2021/07/18 09:58:28;;;;;;;2.80;1.63;;;24.00;94.40;;;;;;5012055;28;20458;-72
2021/07/18 10:00:54;;;;;;;1.58;1.48;;;24.20;93.30;;;;;;5014373;28;20033;-73
2021/07/18 10:03:23;;;;;;;4.03;1.45;;;24.20;92.00;;;;;;5011920;28;20033;-72
2021/07/18 10:06:03;;;;;;;2.17;1.23;;;24.20;92.90;;;;;;5019134;28;20049;-72
2021/07/18 10:08:30;;;;;;;2.90;1.13;;;24.30;92.40;;;;;;5023514;28;20064;-72
2021/07/18 10:10:55;;;;;;;4.88;1.70;;;24.50;92.20;;;;;;5015730;28;20057;-72
2021/07/18 10:13:21;;;;;;;1.77;1.40;;;24.50;92.60;;;;;;5015375;28;20064;-73
2021/07/18 10:15:47;;;;;;;2.50;1.50;;;24.50;92.50;;;;;;5022199;28;20017;-73
2021/07/18 10:18:13;;;;;;;3.65;1.73;;;24.60;93.30;;;;;;5019022;28;20028;-76
2021/07/18 10:20:39;;;;;;;3.35;2.30;;;24.70;91.50;;;;;;5021529;28;20054;-76
2021/07/18 10:23:06;;;;;;;2.78;1.80;;;24.70;88.50;;;;;;5014990;28;20075;-76
2021/07/18 10:25:32;;;;;;;2.08;1.55;;;24.70;90.80;;;;;;5021695;28;20034;-73
2021/07/18 10:27:59;;;;;;;4.85;1.63;;;24.80;87.90;;;;;;5022748;28;20383;-73
2021/07/18 10:30:25;;;;;;;2.00;1.70;;;24.90;90.00;;;;;;5016050;28;20037;-72
2021/07/18 10:32:54;;;;;;;2.70;1.55;;;25.00;90.40;;;;;;5017631;28;20025;-73
2021/07/18 10:35:22;;;;;;;2.80;1.67;;;25.00;89.40;;;;;;5013584;28;20037;-74
2021/07/18 10:37:48;;;;;;;2.10;1.70;;;25.10;90.70;;;;;;5014729;28;20056;-75
2021/07/18 10:40:17;;;;;;;2.35;1.65;;;25.10;90.10;;;;;;5020529;28;20579;-75
2021/07/18 10:42:43;;;;;;;3.60;1.55;;;25.10;90.30;;;;;;5014532;28;20472;-74
2021/07/18 10:45:23;;;;;;;2.13;1.52;;;25.10;89.70;;;;;;5016458;28;20025;-74
2021/07/18 10:48:01;;;;;;;2.80;1.60;;;25.30;87.60;;;;;;5020414;28;20026;-74
2021/07/18 10:50:58;;;;;;;2.75;1.50;;;25.40;87.20;;;;;;5021165;28;20072;-74
2021/07/18 10:53:25;;;;;;;2.38;1.70;;;25.60;85.00;;;;;;5019182;28;20045;-73
2021/07/18 10:55:54;;;;;;;3.35;1.90;;;25.70;89.40;;;;;;5014494;28;20393;-74
2021/07/18 10:58:38;;;;;;;5.68;2.03;;;26.00;84.20;;;;;;5020975;28;20396;-74
2021/07/18 11:01:28;;;;;;;3.97;1.85;;;26.10;84.20;;;;;;5011573;28;20435;-73
2021/07/18 11:03:53;;;;;;;3.60;1.58;;;26.00;81.00;;;;;;5014876;28;20116;-73
2021/07/18 11:06:20;;;;;;;5.20;1.88;;;25.80;81.30;;;;;;5024836;28;20150;-73
2021/07/18 11:09:08;;;;;;;4.30;1.65;;;25.80;84.00;;;;;;5020217;28;20151;-73
2021/07/18 11:11:39;;;;;;;3.05;1.67;;;26.00;84.40;;;;;;5024853;28;20029;-73
2021/07/18 11:14:26;;;;;;;6.18;2.25;;;26.30;82.90;;;;;;5016773;28;20034;-74
2021/07/18 11:17:01;;;;;;;3.30;1.65;;;26.60;81.90;;;;;;5017385;28;20180;-73
2021/07/18 11:19:45;;;;;;;1.38;1.27;;;26.90;81.50;;;;;;5016780;28;20423;-74
2021/07/18 11:22:13;;;;;;;9.45;1.85;;;27.10;80.20;;;;;;5021803;28;20547;-74
2021/07/18 11:24:53;;;;;;;4.38;1.63;;;27.10;77.60;;;;;;5017377;28;20033;-74
2021/07/18 11:27:26;;;;;;;1.92;1.50;;;27.10;77.50;;;;;;5016497;28;20454;-74
2021/07/18 11:29:52;;;;;;;2.03;1.48;;;27.30;79.00;;;;;;5011056;28;20108;-74
2021/07/18 11:32:25;;;;;;;3.70;1.67;;;27.50;78.50;;;;;;5010468;28;20036;-73
2021/07/18 11:34:55;;;;;;;1.92;1.38;;;27.80;74.20;;;;;;5012234;28;20039;-74
2021/07/18 11:37:25;;;;;;;3.63;1.43;;;28.00;70.60;;;;;;5017557;28;20120;-73
2021/07/18 11:39:58;;;;;;;2.37;1.43;;;28.00;71.20;;;;;;5013513;28;20030;-74
2021/07/18 11:42:26;;;;;;;1.40;1.30;;;27.70;70.60;;;;;;5018934;28;20045;-74
2021/07/18 11:44:52;;;;;;;3.75;1.23;;;27.70;70.00;;;;;;5012803;28;20536;-74
2021/07/18 11:47:19;;;;;;;1.45;1.30;;;27.70;69.30;;;;;;5012794;28;20088;-73
2021/07/18 11:49:49;;;;;;;2.90;1.40;;;27.60;69.70;;;;;;5015002;28;20022;-74
2021/07/18 11:52:17;;;;;;;2.35;1.50;;;28.10;71.20;;;;;;5012717;28;20033;-73
2021/07/18 11:54:43;;;;;;;2.42;1.30;;;29.00;67.30;;;;;;5013011;28;20120;-73
2021/07/18 11:57:15;;;;;;;5.32;1.40;;;29.50;64.70;;;;;;5014213;28;20025;-73
2021/07/18 11:59:45;;;;;;;2.08;1.45;;;29.40;60.60;;;;;;5019235;28;20041;-74
2021/07/18 12:02:12;;;;;;;2.27;1.30;;;29.20;66.00;;;;;;5012313;28;20045;-73
2021/07/18 12:04:38;;;;;;;5.20;1.40;;;29.50;64.70;;;;;;5018526;28;20033;-73
2021/07/18 12:07:09;;;;;;;2.13;1.27;;;29.60;62.20;;;;;;5018217;28;20072;-74
2021/07/18 12:09:37;;;;;;;1.45;1.35;;;29.40;63.20;;;;;;5016096;28;20026;-73
2021/07/18 12:12:09;;;;;;;1.23;1.08;;;29.10;62.40;;;;;;5014011;28;20040;-74
2021/07/18 12:14:35;;;;;;;2.35;1.35;;;29.40;61.80;;;;;;5020513;28;20091;-74
2021/07/18 12:17:03;;;;;;;2.03;1.45;;;29.70;61.70;;;;;;5016020;28;20435;-73
2021/07/18 12:19:30;;;;;;;4.68;1.52;;;29.80;59.90;;;;;;5009520;28;20041;-73
2021/07/18 12:21:58;;;;;;;4.20;1.40;;;30.20;64.20;;;;;;5012719;28;20160;-75
2021/07/18 12:24:28;;;;;;;1.83;1.00;;;30.60;59.50;;;;;;5013971;28;20677;-74
2021/07/18 12:27:01;;;;;;;1.73;1.35;;;31.50;55.60;;;;;;5019738;28;20021;-73
2021/07/18 12:29:32;;;;;;;1.67;1.20;;;32.40;55.40;;;;;;5014147;28;20147;-73
2021/07/18 12:31:58;;;;;;;2.65;1.10;;;33.20;54.00;;;;;;5018065;28;20194;-73
2021/07/18 12:34:30;;;;;;;8.10;2.25;;;33.40;50.40;;;;;;5016724;28;20040;-72
2021/07/18 12:37:04;;;;;;;5.25;1.27;;;33.60;49.70;;;;;;5013230;28;20485;-73
2021/07/18 12:39:39;;;;;;;2.55;1.45;;;33.90;48.20;;;;;;5022520;28;20041;-72
2021/07/18 12:42:12;;;;;;;2.00;1.08;;;34.00;48.30;;;;;;5022393;28;20029;-72
2021/07/18 12:44:45;;;;;;;2.80;1.13;;;34.50;51.10;;;;;;5015770;28;20117;-74
2021/07/18 12:47:31;;;;;;;6.82;1.50;;;34.00;47.00;;;;;;5012263;28;20029;-73